createdAt,value
2023-03-31T00:01:09.295Z,8.20
2023-03-31T00:03:43.937Z,8.80
2023-03-31T00:06:18.798Z,9.43
2023-03-31T00:08:51.923Z,11.47
2023-03-31T00:11:21.649Z,12.97
2023-03-31T00:13:48.969Z,9.20
2023-03-31T00:16:16.412Z,9.90
2023-03-31T00:18:51.169Z,9.37
2023-03-31T00:21:25.407Z,11.20
2023-03-31T00:23:58.183Z,9.77
2023-03-31T00:26:26.479Z,8.10
2023-03-31T00:28:56.948Z,11.70
2023-03-31T00:31:25.122Z,7.13
2023-03-31T00:33:54.419Z,8.13
2023-03-31T00:36:27.307Z,13.63
2023-03-31T00:39:00.261Z,10.30
2023-03-31T00:41:31.121Z,11.70
2023-03-31T00:44:27.097Z,8.87
2023-03-31T00:47:07.942Z,6.47
2023-03-31T00:49:41.768Z,10.93
2023-03-31T00:52:22.832Z,12.17
2023-03-31T00:54:57.003Z,12.27
2023-03-31T00:57:26.274Z,11.43
2023-03-31T00:59:59.214Z,11.87
2023-03-31T01:02:33.687Z,10.50
2023-03-31T01:05:06.291Z,11.87
2023-03-31T01:07:43.510Z,11.20
2023-03-31T01:10:12.101Z,10.67
2023-03-31T01:12:42.544Z,12.10
2023-03-31T01:15:12.579Z,13.30
2023-03-31T01:17:40.815Z,7.83
2023-03-31T01:20:37.343Z,9.83
2023-03-31T01:23:22.634Z,12.55
2023-03-31T01:26:24.957Z,10.00
2023-03-31T01:28:57.208Z,6.87
2023-03-31T01:31:38.637Z,7.20
2023-03-31T01:34:32.893Z,12.10
2023-03-31T01:37:23.242Z,8.37
2023-03-31T01:40:19.576Z,10.80
2023-03-31T01:42:53.700Z,8.23
2023-03-31T01:45:26.319Z,8.43
2023-03-31T01:47:58.301Z,7.67
2023-03-31T01:50:30.806Z,7.33
2023-03-31T01:53:26.472Z,7.60
2023-03-31T01:56:07.400Z,7.33
2023-03-31T01:58:42.870Z,8.77
2023-03-31T02:01:26.354Z,6.93
2023-03-31T02:04:10.570Z,5.83
2023-03-31T02:06:42.762Z,7.23
2023-03-31T02:09:16.629Z,11.07
2023-03-31T02:11:49.998Z,10.47
2023-03-31T02:14:22.580Z,10.13
2023-03-31T02:16:58.337Z,6.27
2023-03-31T02:19:31.738Z,9.60
2023-03-31T02:22:03.519Z,6.37
2023-03-31T02:24:33.518Z,7.20
2023-03-31T02:27:25.348Z,6.23
2023-03-31T02:29:53.086Z,5.80
2023-03-31T02:32:32.595Z,6.33
2023-03-31T02:35:01.133Z,5.80
2023-03-31T02:37:30.540Z,5.93
2023-03-31T02:40:01.487Z,6.67
2023-03-31T02:42:28.964Z,5.40
2023-03-31T02:45:09.534Z,7.30
2023-03-31T02:47:36.653Z,4.70
2023-03-31T02:50:09.653Z,5.67
2023-03-31T02:53:10.870Z,5.83
2023-03-31T02:55:38.408Z,4.73
2023-03-31T02:58:27.336Z,4.50
2023-03-31T03:01:14.516Z,4.97
2023-03-31T03:03:44.757Z,5.47
2023-03-31T03:06:37.598Z,3.47
2023-03-31T03:09:08.129Z,4.97
2023-03-31T03:11:50.675Z,4.50
2023-03-31T03:14:41.960Z,5.40
2023-03-31T03:17:14.936Z,6.07
2023-03-31T03:19:42.868Z,5.00
2023-03-31T03:22:10.356Z,4.27
2023-03-31T03:24:37.532Z,7.90
2023-03-31T03:27:06.764Z,4.10
2023-03-31T03:29:33.827Z,6.20
2023-03-31T03:32:00.967Z,5.87
2023-03-31T03:34:30.876Z,4.97
2023-03-31T03:36:58.355Z,3.03
2023-03-31T03:39:27.615Z,4.87
2023-03-31T03:41:54.801Z,6.53
2023-03-31T03:44:24.001Z,6.87
2023-03-31T03:46:53.406Z,6.37
2023-03-31T03:49:22.851Z,5.60
2023-03-31T03:51:54.220Z,6.17
2023-03-31T03:54:23.435Z,4.80
2023-03-31T03:56:52.888Z,5.13
2023-03-31T03:59:25.046Z,4.37
2023-03-31T04:01:52.732Z,4.57
2023-03-31T04:04:19.955Z,8.23
2023-03-31T04:06:47.084Z,7.30
2023-03-31T04:09:16.451Z,4.87
2023-03-31T04:11:46.073Z,6.70
2023-03-31T04:14:13.220Z,5.33
2023-03-31T04:16:42.922Z,9.17
2023-03-31T04:19:14.478Z,7.50
2023-03-31T04:21:58.774Z,17.53
2023-03-31T04:24:30.905Z,4.53
2023-03-31T04:26:58.730Z,5.67
2023-03-31T04:29:28.641Z,6.70
2023-03-31T04:31:59.313Z,4.83
2023-03-31T04:34:35.571Z,4.67
2023-03-31T04:37:03.366Z,5.93
2023-03-31T04:39:31.189Z,7.20
2023-03-31T04:41:59.776Z,5.43
2023-03-31T04:44:29.590Z,4.67
2023-03-31T04:47:02.933Z,5.33
2023-03-31T04:49:35.987Z,2.47
2023-03-31T04:52:03.149Z,5.33
2023-03-31T04:54:32.562Z,7.37
2023-03-31T04:56:59.729Z,6.50
2023-03-31T04:59:34.468Z,4.43
2023-03-31T05:02:04.329Z,5.60
2023-03-31T05:04:31.496Z,6.07
2023-03-31T05:06:58.963Z,9.53
2023-03-31T05:09:31.032Z,6.30
2023-03-31T05:12:00.634Z,4.33
2023-03-31T05:14:27.782Z,5.13
2023-03-31T05:16:59.880Z,5.47
2023-03-31T05:19:26.991Z,8.50
2023-03-31T05:21:56.369Z,4.00
2023-03-31T05:24:23.473Z,7.23
2023-03-31T05:26:52.958Z,6.27
2023-03-31T05:29:20.814Z,7.40
2023-03-31T05:31:48.182Z,7.00
2023-03-31T05:34:15.988Z,8.60
2023-03-31T05:36:47.996Z,12.00
2023-03-31T05:39:18.462Z,10.20
2023-03-31T05:41:45.584Z,8.23
2023-03-31T05:44:12.881Z,7.83
2023-03-31T05:46:42.463Z,8.50
2023-03-31T05:49:11.404Z,9.97
2023-03-31T05:51:38.548Z,6.53
2023-03-31T05:54:06.385Z,6.63
2023-03-31T05:56:33.856Z,7.27
2023-03-31T05:59:01.397Z,7.33
2023-03-31T06:01:30.203Z,6.37
2023-03-31T06:04:00.096Z,8.83
2023-03-31T06:06:27.920Z,8.50
2023-03-31T06:08:55.339Z,9.43
2023-03-31T06:11:22.906Z,8.13
2023-03-31T06:13:55.240Z,8.80
2023-03-31T06:16:22.487Z,8.80
2023-03-31T06:18:52.037Z,8.60
2023-03-31T06:21:21.851Z,13.33
2023-03-31T06:23:55.197Z,7.90
2023-03-31T06:26:23.564Z,9.40
2023-03-31T06:28:50.816Z,10.07
2023-03-31T06:31:20.730Z,14.00
2023-03-31T06:33:50.903Z,9.40
2023-03-31T06:36:24.447Z,21.63
2023-03-31T06:38:52.221Z,25.42
2023-03-31T06:41:22.476Z,24.53
2023-03-31T06:43:50.272Z,16.47
2023-03-31T06:46:18.132Z,35.43
2023-03-31T06:48:52.621Z,23.67
2023-03-31T06:51:22.314Z,25.23
2023-03-31T06:53:52.415Z,14.40
2023-03-31T06:56:22.249Z,16.60
2023-03-31T06:58:49.370Z,10.53
2023-03-31T07:01:18.696Z,14.10
2023-03-31T07:03:49.014Z,17.23
2023-03-31T07:06:18.458Z,22.77
2023-03-31T07:08:48.231Z,12.40
2023-03-31T07:11:16.357Z,14.35
2023-03-31T07:13:45.861Z,13.70
2023-03-31T07:16:15.340Z,11.50
2023-03-31T07:18:42.488Z,11.90
2023-03-31T07:21:10.258Z,11.80
2023-03-31T07:23:37.944Z,11.40
2023-03-31T07:26:06.457Z,14.93
2023-03-31T07:28:38.728Z,14.37
2023-03-31T07:31:12.120Z,15.97
2023-03-31T07:33:39.337Z,13.93
2023-03-31T07:36:12.546Z,10.00
2023-03-31T07:38:42.887Z,13.17
2023-03-31T07:41:18.161Z,16.43
2023-03-31T07:43:46.504Z,15.63
2023-03-31T07:46:26.548Z,24.07
2023-03-31T07:48:55.944Z,16.90
2023-03-31T07:51:25.805Z,14.10
2023-03-31T07:53:53.244Z,16.70
2023-03-31T07:56:22.268Z,25.00
2023-03-31T07:58:51.193Z,18.77
2023-03-31T08:01:25.883Z,25.40
2023-03-31T08:03:55.590Z,16.17
2023-03-31T08:06:26.923Z,20.07
2023-03-31T08:08:57.665Z,19.77
2023-03-31T08:11:27.590Z,17.90
2023-03-31T08:13:57.236Z,17.73
2023-03-31T08:16:29.006Z,11.13
2023-03-31T08:18:58.678Z,12.10
2023-03-31T08:21:25.918Z,18.97
2023-03-31T08:23:56.719Z,17.30
2023-03-31T08:26:26.853Z,13.70
2023-03-31T08:28:54.056Z,14.07
2023-03-31T08:31:26.697Z,16.23
2023-03-31T08:33:57.389Z,16.20
2023-03-31T08:36:26.127Z,14.23
2023-03-31T08:38:54.122Z,31.27
2023-03-31T08:41:47.196Z,17.13
2023-03-31T08:44:36.222Z,30.43
2023-03-31T08:47:05.636Z,16.00
2023-03-31T08:49:45.398Z,10.80
2023-03-31T08:52:20.975Z,12.53
2023-03-31T08:54:55.626Z,11.70
2023-03-31T08:57:30.472Z,10.13
2023-03-31T08:59:58.833Z,11.73
2023-03-31T09:02:42.184Z,11.27
2023-03-31T09:05:41.160Z,8.63
2023-03-31T09:08:38.433Z,11.17
2023-03-31T09:11:12.015Z,11.20
2023-03-31T09:14:01.126Z,8.87
2023-03-31T09:16:50.556Z,10.67
2023-03-31T09:19:41.655Z,11.17
2023-03-31T09:22:17.800Z,9.10
2023-03-31T09:25:10.513Z,16.45
2023-03-31T09:27:42.588Z,10.03
2023-03-31T09:30:26.618Z,11.65
2023-03-31T09:33:14.702Z,21.37
2023-03-31T09:35:43.794Z,28.63
2023-03-31T09:38:16.270Z,35.23
2023-03-31T09:40:45.887Z,20.10
2023-03-31T09:43:26.164Z,18.50
2023-03-31T09:48:36.018Z,21.03
2023-03-31T09:51:14.625Z,20.57
2023-03-31T09:53:50.979Z,20.40
2023-03-31T09:56:44.603Z,27.47
2023-03-31T09:59:20.806Z,17.57
2023-03-31T10:01:54.023Z,17.90
2023-03-31T10:04:26.602Z,21.13
2023-03-31T10:06:57.146Z,24.80
2023-03-31T10:09:35.539Z,23.60
2023-03-31T10:12:07.065Z,27.47
2023-03-31T10:14:55.564Z,23.07
2023-03-31T10:17:27.391Z,17.47
2023-03-31T10:20:06.410Z,17.77
2023-03-31T10:22:44.921Z,16.00
2023-03-31T10:25:23.410Z,19.53
2023-03-31T10:27:54.634Z,15.57
2023-03-31T10:30:29.610Z,13.20
2023-03-31T10:33:11.579Z,13.60
2023-03-31T10:35:56.469Z,20.50
2023-03-31T10:38:36.999Z,12.57
2023-03-31T10:41:06.921Z,10.38
2023-03-31T10:43:48.664Z,14.70
2023-03-31T10:46:18.104Z,17.93
2023-03-31T10:48:51.378Z,12.93
2023-03-31T10:51:27.270Z,14.07
2023-03-31T10:54:01.206Z,15.57
2023-03-31T10:56:32.165Z,16.00
2023-03-31T10:59:06.642Z,12.30
2023-03-31T11:01:36.650Z,15.80
2023-03-31T11:04:25.592Z,9.77
2023-03-31T11:07:19.765Z,17.03
2023-03-31T11:10:08.547Z,15.10
2023-03-31T11:12:57.305Z,14.70
2023-03-31T11:15:41.081Z,16.60
2023-03-31T11:18:23.234Z,14.83
2023-03-31T11:21:20.972Z,15.27
2023-03-31T11:23:58.691Z,13.30
2023-03-31T11:26:41.686Z,16.07
2023-03-31T11:29:27.994Z,14.90
2023-03-31T11:32:32.573Z,14.10
2023-03-31T11:35:09.293Z,13.40
2023-03-31T11:37:54.394Z,9.63
2023-03-31T11:40:40.925Z,11.73
2023-03-31T11:43:15.542Z,11.17
2023-03-31T11:45:51.374Z,12.83
2023-03-31T11:48:43.174Z,10.30
2023-03-31T11:51:19.756Z,6.57
2023-03-31T11:53:48.523Z,12.40
2023-03-31T11:56:20.902Z,12.77
2023-03-31T11:59:00.094Z,10.37
2023-03-31T12:02:00.237Z,10.60
2023-03-31T12:04:45.408Z,8.83
2023-03-31T12:07:40.049Z,13.93
2023-03-31T12:10:23.432Z,8.90
2023-03-31T12:13:03.321Z,8.67
2023-03-31T12:15:42.276Z,7.87
2023-03-31T12:18:16.512Z,11.13
2023-03-31T12:20:51.185Z,8.00
2023-03-31T12:23:22.813Z,8.87
2023-03-31T12:26:11.860Z,12.10
2023-03-31T12:28:41.340Z,9.10
2023-03-31T12:31:13.433Z,10.83
2023-03-31T12:34:12.420Z,9.43
2023-03-31T12:37:15.830Z,10.40
2023-03-31T12:40:19.992Z,10.13
2023-03-31T12:42:59.433Z,12.70
2023-03-31T12:45:47.453Z,8.30
2023-03-31T12:48:29.967Z,10.17
2023-03-31T12:51:03.366Z,8.03
2023-03-31T12:54:04.663Z,9.63
2023-03-31T12:57:02.139Z,7.37
2023-03-31T12:59:34.345Z,10.83
2023-03-31T13:02:19.738Z,5.03
2023-03-31T13:04:52.024Z,4.67
2023-03-31T13:07:30.415Z,8.13
2023-03-31T13:10:25.526Z,5.80
2023-03-31T13:13:02.023Z,6.33
2023-03-31T13:15:31.962Z,5.73
2023-03-31T13:18:04.613Z,5.63
2023-03-31T13:20:40.952Z,6.37
2023-03-31T13:23:19.818Z,6.50
2023-03-31T13:25:48.187Z,12.50
2023-03-31T13:28:21.242Z,7.03
2023-03-31T13:31:04.378Z,2.43
2023-03-31T13:33:41.138Z,2.50
2023-03-31T13:36:32.415Z,5.27
2023-03-31T13:39:31.015Z,5.23
2023-03-31T13:42:19.867Z,2.80
2023-03-31T13:45:24.222Z,3.23
2023-03-31T13:47:56.561Z,4.60
2023-03-31T13:51:00.870Z,6.17
2023-03-31T13:53:34.344Z,4.10
2023-03-31T13:56:09.770Z,3.60
2023-03-31T13:59:27.686Z,6.27
2023-03-31T14:02:25.973Z,3.60
2023-03-31T14:05:25.625Z,2.03
2023-03-31T14:07:58.040Z,8.13
2023-03-31T14:10:37.931Z,3.87
2023-03-31T14:13:21.776Z,3.47
2023-03-31T14:15:56.756Z,4.20
2023-03-31T14:18:30.106Z,1.73
2023-03-31T14:21:05.639Z,5.30
2023-03-31T14:23:44.416Z,2.60
2023-03-31T14:26:27.164Z,3.43
2023-03-31T14:29:19.697Z,5.10
2023-03-31T14:32:12.855Z,1.60
2023-03-31T14:35:01.732Z,2.43
2023-03-31T14:37:29.564Z,1.63
2023-03-31T14:39:58.994Z,2.00
2023-03-31T14:42:49.701Z,2.43
2023-03-31T14:45:19.537Z,1.60
2023-03-31T14:48:13.689Z,1.50
2023-03-31T14:50:48.505Z,2.37
2023-03-31T14:53:23.318Z,3.13
2023-03-31T14:56:03.280Z,1.80
2023-03-31T14:58:37.269Z,1.40
2023-03-31T15:01:07.760Z,1.07
2023-03-31T15:03:41.717Z,2.90
2023-03-31T15:06:09.801Z,2.03
2023-03-31T15:08:39.998Z,2.80
2023-03-31T15:11:13.205Z,3.10
2023-03-31T15:13:46.937Z,3.40
2023-03-31T15:16:36.101Z,2.37
2023-03-31T15:19:13.859Z,0.97
2023-03-31T15:21:43.642Z,2.80
2023-03-31T15:24:14.497Z,2.17
2023-03-31T15:26:52.316Z,5.00
2023-03-31T15:29:38.686Z,2.83
2023-03-31T15:32:14.721Z,2.47
2023-03-31T15:34:43.638Z,1.30
2023-03-31T15:37:13.620Z,2.03
2023-03-31T15:39:46.150Z,1.23
2023-03-31T15:42:15.691Z,1.40
2023-03-31T15:44:46.946Z,3.53
2023-03-31T15:47:30.652Z,1.93
2023-03-31T15:50:04.394Z,1.73
2023-03-31T15:52:45.682Z,2.73
2023-03-31T15:55:39.928Z,2.03
2023-03-31T15:58:13.027Z,2.63
2023-03-31T16:00:41.054Z,3.97
2023-03-31T16:03:24.217Z,3.33
2023-03-31T16:05:58.905Z,3.57
2023-03-31T16:08:37.662Z,6.23
2023-03-31T16:11:16.684Z,2.70
2023-03-31T16:13:52.216Z,4.80
2023-03-31T16:16:27.495Z,4.10
2023-03-31T16:19:10.471Z,4.03
2023-03-31T16:21:50.056Z,3.77
2023-03-31T16:24:17.442Z,8.17
2023-03-31T16:26:44.780Z,4.20
2023-03-31T16:29:21.984Z,3.57
2023-03-31T16:31:49.382Z,5.97
2023-03-31T16:34:16.730Z,4.23
2023-03-31T16:36:43.918Z,5.53
2023-03-31T16:39:13.592Z,6.40
2023-03-31T16:41:43.256Z,4.60
2023-03-31T16:44:12.815Z,3.23
2023-03-31T16:46:39.952Z,4.50
2023-03-31T16:49:07.132Z,6.30
2023-03-31T16:51:36.336Z,5.60
2023-03-31T16:54:03.599Z,3.20
2023-03-31T16:56:31.365Z,3.87
2023-03-31T17:01:31.023Z,3.93
2023-03-31T17:04:03.009Z,5.53
2023-03-31T17:06:32.997Z,3.50
2023-03-31T17:09:01.700Z,3.80
2023-03-31T17:11:32.340Z,5.93
2023-03-31T17:14:01.151Z,4.03
2023-03-31T17:16:40.733Z,4.37
2023-03-31T17:19:15.067Z,4.73
2023-03-31T17:21:42.194Z,4.10
2023-03-31T17:24:12.075Z,4.63
2023-03-31T17:26:39.569Z,5.57
2023-03-31T17:29:06.869Z,4.53
2023-03-31T17:31:34.080Z,2.30
2023-03-31T17:34:01.540Z,4.10
2023-03-31T17:36:28.873Z,3.73
2023-03-31T17:38:56.154Z,3.33
2023-03-31T17:41:25.584Z,2.40
2023-03-31T17:43:54.878Z,4.57
2023-03-31T17:46:22.096Z,4.17
2023-03-31T17:48:53.511Z,5.03
2023-03-31T17:51:23.193Z,5.33
2023-03-31T17:53:50.988Z,4.90
2023-03-31T17:56:18.452Z,3.27
2023-03-31T17:58:46.328Z,4.03
2023-03-31T18:01:16.368Z,6.20
2023-03-31T18:03:46.688Z,7.53
2023-03-31T18:06:14.965Z,8.50
2023-03-31T18:08:43.100Z,6.67
2023-03-31T18:11:13.917Z,5.40
2023-03-31T18:13:41.629Z,5.63
2023-03-31T18:16:10.104Z,6.77
2023-03-31T18:18:37.849Z,6.83
2023-03-31T18:21:13.139Z,8.70
2023-03-31T18:23:44.737Z,10.47
2023-03-31T18:26:15.642Z,6.47
2023-03-31T18:28:47.468Z,5.93
2023-03-31T18:31:14.616Z,5.97
2023-03-31T18:33:44.627Z,5.63
2023-03-31T18:36:18.176Z,6.80
2023-03-31T18:38:47.068Z,6.27
2023-03-31T18:41:19.240Z,8.20
2023-03-31T18:43:52.128Z,7.93
2023-03-31T18:46:19.844Z,5.67
2023-03-31T18:48:49.236Z,7.80
2023-03-31T18:51:16.357Z,7.33
2023-03-31T18:53:43.477Z,7.20
2023-03-31T18:56:10.617Z,6.77
2023-03-31T18:58:37.874Z,12.70
2023-03-31T19:01:07.413Z,8.73
2023-03-31T19:03:34.691Z,11.57
2023-03-31T19:06:14.021Z,10.97
2023-03-31T19:08:45.863Z,12.63
2023-03-31T19:11:19.205Z,12.03
2023-03-31T19:13:49.551Z,11.50
2023-03-31T19:16:17.653Z,12.73
2023-03-31T19:18:47.710Z,10.30
2023-03-31T19:21:17.009Z,10.20
2023-03-31T19:23:44.130Z,10.70
2023-03-31T19:26:16.017Z,7.00
2023-03-31T19:28:47.945Z,10.50
2023-03-31T19:31:15.593Z,8.20
2023-03-31T19:33:43.006Z,12.30
2023-03-31T19:36:13.198Z,8.10
2023-03-31T19:38:43.309Z,8.10
2023-03-31T19:41:14.878Z,9.83
2023-03-31T19:43:45.137Z,16.47
2023-03-31T19:46:12.374Z,9.90
2023-03-31T19:48:41.780Z,11.40
2023-03-31T19:51:11.550Z,8.03
2023-03-31T19:53:39.576Z,9.23
2023-03-31T19:56:15.221Z,11.63
2023-03-31T19:58:45.267Z,11.83
2023-03-31T20:01:23.331Z,8.13
2023-03-31T20:03:53.061Z,9.20
2023-03-31T20:06:25.744Z,13.53
2023-03-31T20:08:55.407Z,6.07
2023-03-31T20:11:23.219Z,10.60
2023-03-31T20:13:50.521Z,9.43
2023-03-31T20:16:22.497Z,10.47
2023-03-31T20:18:55.245Z,11.03
2023-03-31T20:21:27.557Z,7.67
2023-03-31T20:23:55.571Z,10.17
2023-03-31T20:26:34.385Z,8.83
2023-03-31T20:29:03.723Z,10.60
2023-03-31T20:31:39.244Z,8.30
2023-03-31T20:34:12.834Z,10.27
2023-03-31T20:36:43.970Z,8.03
2023-03-31T20:39:18.538Z,9.00
2023-03-31T20:41:49.932Z,10.33
2023-03-31T20:44:19.612Z,7.57
2023-03-31T20:46:47.577Z,8.93
2023-03-31T20:49:14.848Z,5.53
2023-03-31T20:51:42.794Z,7.97
2023-03-31T20:54:12.373Z,4.63
2023-03-31T20:56:41.676Z,4.93
2023-03-31T20:59:15.101Z,5.40
2023-03-31T21:01:42.933Z,4.10
2023-03-31T21:04:11.644Z,7.60
2023-03-31T21:06:41.820Z,4.53
2023-03-31T21:09:11.663Z,3.73
2023-03-31T21:11:40.668Z,6.13
2023-03-31T21:14:16.481Z,5.87
2023-03-31T21:16:46.510Z,9.50
2023-03-31T21:19:16.487Z,4.27
2023-03-31T21:21:48.605Z,5.30
2023-03-31T21:24:15.955Z,7.90
2023-03-31T21:26:45.452Z,10.47
2023-03-31T21:29:12.657Z,6.40
2023-03-31T21:31:42.234Z,7.13
2023-03-31T21:34:09.496Z,6.00
2023-03-31T21:36:36.691Z,8.13
2023-03-31T21:39:05.124Z,5.80
2023-03-31T21:41:34.969Z,3.63
2023-03-31T21:44:05.472Z,6.27
2023-03-31T21:46:35.207Z,7.43
2023-03-31T21:49:07.153Z,6.37
2023-03-31T21:51:37.311Z,9.60
2023-03-31T21:54:08.935Z,7.33
2023-03-31T21:56:36.171Z,6.67
2023-03-31T21:59:04.321Z,9.30
2023-03-31T22:01:32.484Z,8.13
2023-03-31T22:04:00.311Z,5.63
2023-03-31T22:06:29.743Z,6.70
2023-03-31T22:08:59.425Z,5.97
2023-03-31T22:11:29.105Z,5.97
2023-03-31T22:13:57.153Z,8.50
2023-03-31T22:16:24.631Z,5.40
2023-03-31T22:18:52.841Z,10.57
2023-03-31T22:21:24.611Z,9.40
2023-03-31T22:23:58.314Z,7.37
2023-03-31T22:26:29.974Z,10.93
2023-03-31T22:28:58.115Z,10.10
2023-03-31T22:31:29.767Z,7.83
2023-03-31T22:33:59.182Z,8.83
2023-03-31T22:36:27.251Z,9.87
2023-03-31T22:38:56.764Z,8.80
2023-03-31T22:41:23.918Z,9.70
2023-03-31T22:43:51.563Z,7.93
2023-03-31T22:46:24.189Z,4.60
2023-03-31T22:48:53.769Z,7.50
2023-03-31T22:51:23.552Z,5.90
2023-03-31T22:53:51.845Z,9.03
2023-03-31T22:56:19.943Z,5.10
2023-03-31T22:58:52.248Z,5.00
2023-03-31T23:01:21.102Z,5.53
2023-03-31T23:03:51.012Z,4.83
2023-03-31T23:06:18.332Z,6.50
2023-03-31T23:08:48.505Z,5.43
2023-03-31T23:11:17.438Z,3.67
2023-03-31T23:13:45.396Z,5.50
2023-03-31T23:16:22.633Z,5.70
2023-03-31T23:18:59.306Z,6.13
2023-03-31T23:21:28.457Z,5.10
2023-03-31T23:23:58.648Z,6.53
2023-03-31T23:26:27.894Z,8.00
2023-03-31T23:28:55.953Z,7.70
2023-03-31T23:31:27.662Z,5.80
2023-03-31T23:33:55.197Z,6.47
2023-03-31T23:36:22.586Z,5.40
2023-03-31T23:38:51.437Z,4.77
2023-03-31T23:41:19.532Z,6.27
2023-03-31T23:43:50.855Z,2.57
2023-03-31T23:46:18.508Z,3.80
2023-03-31T23:48:45.685Z,3.80
2023-03-31T23:51:15.430Z,2.97
2023-03-31T23:53:42.601Z,2.23
2023-03-31T23:56:13.621Z,4.00
2023-03-31T23:58:43.073Z,2.97
